Time;durP1;ratioP1;P1;durP2;ratioP2;P2;SDS_P1;SDS_P2;PMS_P1;PMS_P2;Temp;Humidity;BMP_temperature;BMP_pressure;BME280_temperature;BME280_humidity;BME280_pressure;Samples;Min_cycle;Max_cycle;Signal;HPM_P1;HPM_P2
2019/11/06 00:02:22;;;;;;;6.9;4.9;;;;;;;;;;;;;
2019/11/06 00:04:47;;;;;;;7.8;5;;;;;;;;;;;;;
2019/11/06 00:07:12;;;;;;;8.1;4.9;;;;;;;;;;;;;
2019/11/06 00:09:37;;;;;;;6.8;4.7;;;;;;;;;;;;;
2019/11/06 00:12:02;;;;;;;10;5.2;;;;;;;;;;;;;
2019/11/06 00:14:27;;;;;;;9.5;5.6;;;;;;;;;;;;;
2019/11/06 00:16:52;;;;;;;8.5;5.6;;;;;;;;;;;;;
2019/11/06 00:19:18;;;;;;;7.6;5.2;;;;;;;;;;;;;
2019/11/06 00:21:43;;;;;;;8.9;5.2;;;;;;;;;;;;;
2019/11/06 00:24:08;;;;;;;8.9;5.2;;;;;;;;;;;;;
2019/11/06 00:26:33;;;;;;;9.2;5.6;;;;;;;;;;;;;
2019/11/06 00:28:58;;;;;;;9.1;5.4;;;;;;;;;;;;;
2019/11/06 00:31:23;;;;;;;8.4;5.1;;;;;;;;;;;;;
2019/11/06 00:33:48;;;;;;;9.8;5.7;;;;;;;;;;;;;
2019/11/06 00:36:13;;;;;;;8.5;5.7;;;;;;;;;;;;;
2019/11/06 00:38:38;;;;;;;9.7;5.5;;;;;;;;;;;;;
2019/11/06 00:41:03;;;;;;;8.1;5.5;;;;;;;;;;;;;
2019/11/06 00:43:28;;;;;;;10.4;5.6;;;;;;;;;;;;;
2019/11/06 00:45:53;;;;;;;10.4;5.6;;;;;;;;;;;;;
2019/11/06 00:48:18;;;;;;;9.4;5.4;;;;;;;;;;;;;
2019/11/06 00:50:43;;;;;;;7.4;4.8;;;;;;;;;;;;;
2019/11/06 00:53:08;;;;;;;6.2;4.2;;;;;;;;;;;;;
2019/11/06 00:55:34;;;;;;;7;4.5;;;;;;;;;;;;;
2019/11/06 00:57:59;;;;;;;8.1;4.1;;;;;;;;;;;;;
2019/11/06 01:00:24;;;;;;;7.1;4.2;;;;;;;;;;;;;
2019/11/06 01:02:49;;;;;;;8;4.5;;;;;;;;;;;;;
2019/11/06 01:05:14;;;;;;;8.4;4.6;;;;;;;;;;;;;
2019/11/06 01:07:39;;;;;;;7.4;5;;;;;;;;;;;;;
2019/11/06 01:10:04;;;;;;;7.2;4.7;;;;;;;;;;;;;
2019/11/06 01:12:29;;;;;;;7.8;4.8;;;;;;;;;;;;;
2019/11/06 01:14:55;;;;;;;7.9;4.7;;;;;;;;;;;;;
2019/11/06 01:17:20;;;;;;;6.6;4.6;;;;;;;;;;;;;
2019/11/06 01:19:45;;;;;;;7.2;4.4;;;;;;;;;;;;;
2019/11/06 01:22:10;;;;;;;6.3;4.5;;;;;;;;;;;;;
2019/11/06 01:24:35;;;;;;;7.7;4.4;;;;;;;;;;;;;
2019/11/06 01:27:00;;;;;;;9.2;4.7;;;;;;;;;;;;;
2019/11/06 01:29:25;;;;;;;8.7;4.5;;;;;;;;;;;;;
2019/11/06 01:34:16;;;;;;;7.1;4.6;;;;;;;;;;;;;
2019/11/06 01:36:41;;;;;;;9.3;4.7;;;;;;;;;;;;;
2019/11/06 01:39:06;;;;;;;6.5;4.3;;;;;;;;;;;;;
2019/11/06 01:41:31;;;;;;;7.4;4.7;;;;;;;;;;;;;
2019/11/06 01:43:56;;;;;;;7.4;4.9;;;;;;;;;;;;;
2019/11/06 01:46:21;;;;;;;7.8;4.9;;;;;;;;;;;;;
2019/11/06 01:48:46;;;;;;;6.8;4.6;;;;;;;;;;;;;
2019/11/06 01:51:11;;;;;;;7;4.4;;;;;;;;;;;;;
2019/11/06 01:53:36;;;;;;;6.7;4.4;;;;;;;;;;;;;
2019/11/06 01:56:02;;;;;;;6.2;4.4;;;;;;;;;;;;;
2019/11/06 01:58:27;;;;;;;7.1;4.8;;;;;;;;;;;;;
2019/11/06 02:00:52;;;;;;;6.5;4.4;;;;;;;;;;;;;
2019/11/06 02:03:17;;;;;;;6.4;4.4;;;;;;;;;;;;;
2019/11/06 02:05:42;;;;;;;8.3;4.7;;;;;;;;;;;;;
2019/11/06 02:08:07;;;;;;;7.2;4.5;;;;;;;;;;;;;
2019/11/06 02:10:32;;;;;;;5.1;4.2;;;;;;;;;;;;;
2019/11/06 02:12:57;;;;;;;7.4;4.5;;;;;;;;;;;;;
2019/11/06 02:15:22;;;;;;;8.2;4.2;;;;;;;;;;;;;
2019/11/06 02:17:47;;;;;;;5.4;3.8;;;;;;;;;;;;;
2019/11/06 02:20:13;;;;;;;5.9;4.1;;;;;;;;;;;;;
2019/11/06 02:22:38;;;;;;;6.9;4.2;;;;;;;;;;;;;
2019/11/06 02:25:03;;;;;;;6.4;4.3;;;;;;;;;;;;;
2019/11/06 02:27:28;;;;;;;9.1;3.9;;;;;;;;;;;;;
2019/11/06 02:29:53;;;;;;;5.5;3.9;;;;;;;;;;;;;
2019/11/06 02:32:18;;;;;;;6.1;3.9;;;;;;;;;;;;;
2019/11/06 02:34:43;;;;;;;6.2;4.2;;;;;;;;;;;;;
2019/11/06 02:37:08;;;;;;;5.7;3.8;;;;;;;;;;;;;
2019/11/06 02:39:33;;;;;;;6.6;3.7;;;;;;;;;;;;;
2019/11/06 02:41:58;;;;;;;6;4.2;;;;;;;;;;;;;
2019/11/06 02:44:23;;;;;;;5.9;4.1;;;;;;;;;;;;;
2019/11/06 02:46:49;;;;;;;7.5;4.4;;;;;;;;;;;;;
2019/11/06 02:49:14;;;;;;;7.3;4.3;;;;;;;;;;;;;
2019/11/06 02:51:39;;;;;;;7.5;4.3;;;;;;;;;;;;;
2019/11/06 02:54:04;;;;;;;7.7;4.7;;;;;;;;;;;;;
2019/11/06 02:56:29;;;;;;;6;4.3;;;;;;;;;;;;;
2019/11/06 02:58:54;;;;;;;5.9;4.3;;;;;;;;;;;;;
2019/11/06 03:01:19;;;;;;;9.1;5;;;;;;;;;;;;;
2019/11/06 03:03:44;;;;;;;6.6;4.5;;;;;;;;;;;;;
2019/11/06 03:06:10;;;;;;;7.2;5;;;;;;;;;;;;;
2019/11/06 03:08:35;;;;;;;6.5;4.7;;;;;;;;;;;;;
2019/11/06 03:11:00;;;;;;;6.5;4.9;;;;;;;;;;;;;
2019/11/06 03:13:25;;;;;;;7.4;5.2;;;;;;;;;;;;;
2019/11/06 03:15:50;;;;;;;6.4;4.8;;;;;;;;;;;;;
2019/11/06 03:18:15;;;;;;;7.4;5;;;;;;;;;;;;;
2019/11/06 03:20:40;;;;;;;7.3;4.8;;;;;;;;;;;;;
2019/11/06 03:23:05;;;;;;;7;5.2;;;;;;;;;;;;;
2019/11/06 03:25:30;;;;;;;7.7;5.5;;;;;;;;;;;;;
2019/11/06 03:27:55;;;;;;;6.9;5.4;;;;;;;;;;;;;
2019/11/06 03:30:21;;;;;;;8.4;5.5;;;;;;;;;;;;;
2019/11/06 03:32:46;;;;;;;7.5;5.3;;;;;;;;;;;;;
2019/11/06 03:35:11;;;;;;;8.3;6.5;;;;;;;;;;;;;
2019/11/06 03:37:36;;;;;;;9.7;6.1;;;;;;;;;;;;;
2019/11/06 03:40:01;;;;;;;10.6;6.9;;;;;;;;;;;;;
2019/11/06 03:42:26;;;;;;;10.5;7.4;;;;;;;;;;;;;
2019/11/06 03:44:51;;;;;;;10;7.9;;;;;;;;;;;;;
2019/11/06 03:47:16;;;;;;;10.3;8.3;;;;;;;;;;;;;
2019/11/06 03:49:41;;;;;;;12.6;9.1;;;;;;;;;;;;;
2019/11/06 03:52:06;;;;;;;11.9;9.3;;;;;;;;;;;;;
2019/11/06 03:54:31;;;;;;;12.5;9.6;;;;;;;;;;;;;
2019/11/06 03:56:56;;;;;;;12.6;10.1;;;;;;;;;;;;;
2019/11/06 03:59:21;;;;;;;13.2;10.4;;;;;;;;;;;;;
2019/11/06 04:02:27;;;;;;;13.7;10.5;;;;;;;9.28;97.19629;988.061;;;;
2019/11/06 04:04:53;;;;;;;15.1;11;;;;;;;9.38;96.85352;988.0981;;;;
2019/11/06 04:07:18;;;;;;;13.3;10.6;;;;;;;9.39;96.93555;988.0388;;;;
2019/11/06 04:09:43;;;;;;;13;10.5;;;;;;;9.39;96.94629;988.0765;;;;
2019/11/06 04:12:08;;;;;;;13.5;10.2;;;;;;;9.53;96.36035;988.108;;;;
2019/11/06 04:14:33;;;;;;;14.6;10.3;;;;;;;9.44;96.37402;988.0938;;;;
2019/11/06 04:16:58;;;;;;;13.1;9.6;;;;;;;9.34;96.52539;988.1203;;;;
2019/11/06 04:19:23;;;;;;;11.4;9.3;;;;;;;9.34;96.80859;988.1454;;;;
2019/11/06 04:21:48;;;;;;;13.5;9.5;;;;;;;9.36;96.56152;988.1488;;;;
2019/11/06 04:24:13;;;;;;;12;9.1;;;;;;;9.46;96.18457;988.2096;;;;
2019/11/06 04:26:38;;;;;;;10.1;8.5;;;;;;;9.55;95.67871;988.2756;;;;
2019/11/06 04:29:03;;;;;;;13;8.5;;;;;;;9.48;95.8916;988.2664;;;;
2019/11/06 04:31:28;;;;;;;11.1;8.2;;;;;;;9.43;95.80176;988.2971;;;;
2019/11/06 04:33:54;;;;;;;11.7;8.4;;;;;;;9.42;95.90234;988.37;;;;
2019/11/06 04:36:19;;;;;;;11.8;8.7;;;;;;;9.44;95.82813;988.3853;;;;
2019/11/06 04:38:44;;;;;;;9.2;8.1;;;;;;;9.42;95.98242;988.3853;;;;
2019/11/06 04:41:09;;;;;;;10.6;8.6;;;;;;;9.27;96.46191;988.3983;;;;
2019/11/06 04:43:34;;;;;;;9.7;8.2;;;;;;;9.32;96.51953;988.3784;;;;
2019/11/06 04:45:59;;;;;;;11.3;8.3;;;;;;;9.26;96.19727;988.3974;;;;
2019/11/06 04:48:27;;;;;;;10.2;8.4;;;;;;;9.15;96.94922;988.4263;;;;
2019/11/06 04:50:49;;;;;;;11.1;8.5;;;;;;;9.2;96.75391;988.4889;;;;
2019/11/06 04:53:14;;;;;;;11.9;8.6;;;;;;;9.19;96.89063;988.4711;;;;
2019/11/06 04:55:40;;;;;;;11.7;8.7;;;;;;;9.17;97.10352;988.4254;;;;
2019/11/06 04:58:05;;;;;;;12.6;9.4;;;;;;;9.16;96.88477;988.4475;;;;
2019/11/06 05:00:30;;;;;;;11.1;9;;;;;;;9.15;97.12012;988.4713;;;;
2019/11/06 05:02:55;;;;;;;10.6;9.4;;;;;;;9.14;97.0957;988.4855;;;;
2019/11/06 05:05:20;;;;;;;11.4;9.1;;;;;;;9.19;96.9707;988.5031;;;;
2019/11/06 05:07:45;;;;;;;11.3;9.1;;;;;;;9.16;97.07617;988.5313;;;;
2019/11/06 05:10:11;;;;;;;12.6;9.8;;;;;;;9.18;97.16211;988.517;;;;
2019/11/06 05:12:36;;;;;;;13.1;9.6;;;;;;;9.17;97.22656;988.5547;;;;
2019/11/06 05:15:01;;;;;;;12.9;9.5;;;;;;;9.18;97.25195;988.5847;;;;
2019/11/06 05:17:26;;;;;;;13.3;10.2;;;;;;;9.18;97.45703;988.6167;;;;
2019/11/06 05:19:51;;;;;;;13.4;10;;;;;;;9.3;96.74414;988.5944;;;;
2019/11/06 05:22:16;;;;;;;13.6;9.9;;;;;;;9.29;96.78711;988.5867;;;;
2019/11/06 05:24:41;;;;;;;11;9.8;;;;;;;9.17;97.13574;988.603;;;;
2019/11/06 05:27:07;;;;;;;12.8;9.7;;;;;;;9.24;97.08301;988.6096;;;;
2019/11/06 05:29:32;;;;;;;13.2;10.3;;;;;;;9.27;97.21484;988.5896;;;;
2019/11/06 05:31:57;;;;;;;12;9.6;;;;;;;9.25;96.99414;988.683;;;;
2019/11/06 05:34:22;;;;;;;10.6;9.5;;;;;;;9.26;96.72266;988.7355;;;;
2019/11/06 05:36:48;;;;;;;10.7;9.3;;;;;;;9.27;96.82715;988.7651;;;;
2019/11/06 05:39:13;;;;;;;11.3;9.5;;;;;;;9.23;97.24316;988.7308;;;;
2019/11/06 05:41:38;;;;;;;12.7;9.3;;;;;;;9.23;97.02637;988.7628;;;;
2019/11/06 05:44:04;;;;;;;12.4;9.9;;;;;;;9.33;96.73633;988.7858;;;;
2019/11/06 05:46:28;;;;;;;12.5;10;;;;;;;9.31;96.75684;988.788;;;;
2019/11/06 05:48:53;;;;;;;11.3;9.6;;;;;;;9.25;97.23535;988.8354;;;;
2019/11/06 05:51:18;;;;;;;13.4;10.2;;;;;;;9.28;97.19629;988.8538;;;;
2019/11/06 05:53:44;;;;;;;12.6;10.1;;;;;;;9.42;96.47266;988.8437;;;;
2019/11/06 05:56:09;;;;;;;11.4;9.6;;;;;;;9.22;97.31738;988.9192;;;;
2019/11/06 05:58:34;;;;;;;12.1;9.9;;;;;;;9.27;97.00977;988.9308;;;;
2019/11/06 06:00:59;;;;;;;12.1;9.5;;;;;;;9.29;97.12988;988.9765;;;;
2019/11/06 06:03:25;;;;;;;12.4;9.4;;;;;;;9.35;96.85645;988.9917;;;;
2019/11/06 06:05:50;;;;;;;12.5;9.5;;;;;;;9.4;96.8916;989.063;;;;
2019/11/06 06:08:15;;;;;;;13.8;10;;;;;;;9.36;96.76758;989.0619;;;;
2019/11/06 06:10:40;;;;;;;12.1;9.2;;;;;;;9.37;96.72559;989.032;;;;
2019/11/06 06:13:05;;;;;;;10.6;9.3;;;;;;;9.34;96.86816;989.0519;;;;
2019/11/06 06:15:31;;;;;;;11.7;9.3;;;;;;;9.39;96.31836;989.0291;;;;
2019/11/06 06:17:55;;;;;;;10.8;9.3;;;;;;;9.3;97.04004;989.0432;;;;
2019/11/06 06:20:20;;;;;;;10.9;9;;;;;;;9.39;96.56934;989.1842;;;;
2019/11/06 06:22:46;;;;;;;10.8;9.3;;;;;;;9.33;97.14941;989.1989;;;;
2019/11/06 06:25:17;;;;;;;11.3;8.8;;;;;;;9.32;97.11328;989.2289;;;;
2019/11/06 06:27:43;;;;;;;12.7;9.2;;;;;;;9.31;96.96289;989.2314;;;;
2019/11/06 06:30:08;;;;;;;12.2;9.6;;;;;;;9.29;97.30078;989.2897;;;;
2019/11/06 06:32:33;;;;;;;11.7;9;;;;;;;9.3;97.32617;989.2991;;;;
2019/11/06 06:34:58;;;;;;;11.2;9.6;;;;;;;9.42;96.82715;989.2836;;;;
2019/11/06 06:37:23;;;;;;;10.8;9.2;;;;;;;9.3;97.20996;989.3558;;;;
2019/11/06 06:39:48;;;;;;;9.9;8.6;;;;;;;9.39;96.87793;989.4142;;;;
2019/11/06 06:42:13;;;;;;;11.3;8.9;;;;;;;9.45;96.78711;989.4172;;;;
2019/11/06 06:44:38;;;;;;;9.8;8.7;;;;;;;9.42;96.64453;989.4412;;;;
2019/11/06 06:47:04;;;;;;;10.3;8.2;;;;;;;9.57;95.99121;989.4744;;;;
2019/11/06 06:49:29;;;;;;;9.2;8.2;;;;;;;9.46;96.25293;989.5154;;;;
2019/11/06 06:51:54;;;;;;;11.1;8.4;;;;;;;9.42;96.53027;989.5728;;;;
2019/11/06 06:54:19;;;;;;;9.2;8;;;;;;;9.5;96.34277;989.5916;;;;
2019/11/06 06:56:44;;;;;;;8.9;8;;;;;;;9.57;95.80859;989.6448;;;;
2019/11/06 06:59:09;;;;;;;9.1;8.1;;;;;;;9.57;96.07324;989.6411;;;;
2019/11/06 07:01:34;;;;;;;9.9;7.9;;;;;;;9.54;96.35254;989.6609;;;;
2019/11/06 07:03:59;;;;;;;10.8;8.6;;;;;;;9.51;96.70996;989.7336;;;;
2019/11/06 07:06:24;;;;;;;9.4;7.7;;;;;;;9.61;96.17285;989.7422;;;;
2019/11/06 07:08:50;;;;;;;10.3;7.6;;;;;;;9.66;96.12793;989.822;;;;
2019/11/06 07:11:15;;;;;;;9.5;7.9;;;;;;;9.53;96.59961;989.8074;;;;
2019/11/06 07:13:40;;;;;;;9.6;7.4;;;;;;;9.59;96.31738;989.8134;;;;
2019/11/06 07:16:05;;;;;;;9.2;7.7;;;;;;;9.58;96.48438;989.8314;;;;
2019/11/06 07:18:30;;;;;;;9.9;7.7;;;;;;;9.59;96.51172;989.8489;;;;
2019/11/06 07:20:55;;;;;;;8.8;7.9;;;;;;;9.6;96.02246;989.9328;;;;
2019/11/06 07:23:20;;;;;;;9.2;7.1;;;;;;;9.75;95.6084;989.9568;;;;
2019/11/06 07:25:45;;;;;;;8.4;7.2;;;;;;;9.58;96.03906;989.9681;;;;
2019/11/06 07:28:11;;;;;;;8.8;7.6;;;;;;;9.7;95.96582;989.979;;;;
2019/11/06 07:30:36;;;;;;;8;6.9;;;;;;;9.78;95.30762;990.0767;;;;
2019/11/06 07:33:01;;;;;;;8;7;;;;;;;9.82;95.34082;990.0823;;;;
2019/11/06 07:35:26;;;;;;;7.9;7.1;;;;;;;9.82;95.00977;990.0756;;;;
2019/11/06 07:37:52;;;;;;;8.2;6.9;;;;;;;9.79;95.12891;990.06;;;;
2019/11/06 07:40:16;;;;;;;8.4;7;;;;;;;9.89;94.65723;990.0994;;;;
2019/11/06 07:42:42;;;;;;;9;7;;;;;;;9.89;94.64648;990.1302;;;;
2019/11/06 07:45:07;;;;;;;7.2;6.4;;;;;;;9.92;94.31055;990.1799;;;;
2019/11/06 07:47:32;;;;;;;8;6.9;;;;;;;9.84;94.71387;990.2112;;;;
2019/11/06 07:49:57;;;;;;;7.9;6.5;;;;;;;9.96;94.41016;990.2311;;;;
2019/11/06 07:52:22;;;;;;;7.7;6.9;;;;;;;9.95;94.53613;990.2507;;;;
2019/11/06 07:54:48;;;;;;;6.7;6.1;;;;;;;10.01;93.82715;990.2731;;;;
2019/11/06 07:57:14;;;;;;;9.3;7.8;;;;;;;9.99;94.35938;990.3024;;;;
2019/11/06 07:59:39;;;;;;;8.9;6.5;;;;;;;10.19;93.36328;990.358;;;;
2019/11/06 08:02:04;;;;;;;7.4;6;;;;;;;10.16;93.5498;990.3834;;;;
2019/11/06 08:04:29;;;;;;;6.6;5.7;;;;;;;10.18;93.37305;990.4034;;;;
2019/11/06 08:06:54;;;;;;;7.7;5.8;;;;;;;10.2;93.34082;990.4657;;;;
2019/11/06 08:09:19;;;;;;;6.5;5.4;;;;;;;10.25;92.70215;990.4765;;;;
2019/11/06 08:11:44;;;;;;;7.2;5.6;;;;;;;10.26;92.48438;990.5082;;;;
2019/11/06 08:14:09;;;;;;;6.1;5.1;;;;;;;10.3;92.65234;990.5334;;;;
2019/11/06 08:16:34;;;;;;;6.3;5;;;;;;;10.29;92.16016;990.5305;;;;
2019/11/06 08:18:59;;;;;;;7.1;5.4;;;;;;;10.23;92.3877;990.5322;;;;
2019/11/06 08:21:25;;;;;;;5.4;4.5;;;;;;;10.29;92.44629;990.5974;;;;
2019/11/06 08:23:50;;;;;;;6.3;5.1;;;;;;;10.28;92.23828;990.5678;;;;
2019/11/06 08:26:15;;;;;;;7.2;5;;;;;;;10.27;92.39551;990.5845;;;;
2019/11/06 08:28:40;;;;;;;7.2;4.8;;;;;;;10.41;91.81934;990.6114;;;;
2019/11/06 08:31:05;;;;;;;6.6;4.8;;;;;;;10.38;91.49316;990.627;;;;
2019/11/06 08:33:30;;;;;;;6.2;5.1;;;;;;;10.28;91.89551;990.5965;;;;
2019/11/06 08:35:55;;;;;;;5.6;4.8;;;;;;;10.4;91.70313;990.6863;;;;
2019/11/06 08:38:20;;;;;;;6.1;4.7;;;;;;;10.46;91.49707;990.6869;;;;
2019/11/06 08:40:46;;;;;;;7;5.3;;;;;;;10.61;90.99121;990.6577;;;;
2019/11/06 08:43:11;;;;;;;7.6;5.2;;;;;;;10.69;90.1377;990.6354;;;;
2019/11/06 08:45:36;;;;;;;6.9;5.1;;;;;;;10.54;90.82715;990.675;;;;
2019/11/06 08:48:01;;;;;;;6.4;4.7;;;;;;;10.48;91.22559;990.649;;;;
2019/11/06 08:50:26;;;;;;;6.9;5;;;;;;;10.62;90.62891;990.685;;;;
2019/11/06 08:52:51;;;;;;;5.7;5;;;;;;;10.83;89.97363;990.6671;;;;
2019/11/06 08:55:16;;;;;;;6.9;5;;;;;;;10.66;90.31543;990.6536;;;;
2019/11/06 08:57:41;;;;;;;5.1;4.5;;;;;;;10.82;89.5459;990.6644;;;;
2019/11/06 09:00:09;;;;;;;6.6;4.6;;;;;;;10.93;89.30664;990.7181;;;;
2019/11/06 09:02:33;;;;;;;6.1;4.1;;;;;;;11.1;88.81445;990.7429;;;;
2019/11/06 09:04:59;;;;;;;4.9;3.9;;;;;;;11.21;87.47168;990.7416;;;;
2019/11/06 09:07:24;;;;;;;5.6;4.2;;;;;;;11.2;87.61719;990.7018;;;;
2019/11/06 09:09:49;;;;;;;5;3.9;;;;;;;11.15;88.05371;990.7294;;;;
2019/11/06 09:12:14;;;;;;;6;4.1;;;;;;;11.29;87.12109;990.7166;;;;
2019/11/06 09:14:39;;;;;;;6.4;3.9;;;;;;;11.31;87.5957;990.7068;;;;
2019/11/06 09:17:04;;;;;;;6.1;3.7;;;;;;;11.43;85.7832;990.7194;;;;
2019/11/06 09:19:30;;;;;;;8.3;4.6;;;;;;;11.44;86.27832;990.7852;;;;
2019/11/06 09:21:55;;;;;;;5.3;3.7;;;;;;;11.55;85.49902;990.8111;;;;
2019/11/06 09:24:20;;;;;;;7.1;4.2;;;;;;;11.33;86.26855;990.866;;;;
2019/11/06 09:26:45;;;;;;;7;4.5;;;;;;;11.23;86.55664;990.8685;;;;
2019/11/06 09:29:10;;;;;;;4.7;3.8;;;;;;;11.38;86.48438;990.8376;;;;
2019/11/06 09:31:35;;;;;;;5.8;3.7;;;;;;;11.29;85.60742;990.8611;;;;
2019/11/06 09:34:00;;;;;;;4.8;3.7;;;;;;;11.37;85.55469;990.9252;;;;
2019/11/06 09:36:25;;;;;;;6.4;4;;;;;;;11.29;86.12402;990.9472;;;;
2019/11/06 09:38:50;;;;;;;5;3.7;;;;;;;11.14;86.23047;990.9891;;;;
2019/11/06 09:41:15;;;;;;;5.7;4.1;;;;;;;10.97;86.9873;990.9727;;;;
2019/11/06 09:43:40;;;;;;;5.6;4.2;;;;;;;11.1;86.56543;991.0023;;;;
2019/11/06 09:46:06;;;;;;;6.3;4.2;;;;;;;10.97;87.15918;990.9748;;;;
2019/11/06 09:48:31;;;;;;;6.7;4.4;;;;;;;11.06;87.00781;991.0292;;;;
2019/11/06 09:50:56;;;;;;;6.2;4.3;;;;;;;11.18;86.29688;990.9952;;;;
2019/11/06 09:53:21;;;;;;;5.8;3.8;;;;;;;11.36;84.86328;991.0761;;;;
2019/11/06 09:55:46;;;;;;;4.5;3.5;;;;;;;11.33;85.04102;991.0382;;;;
2019/11/06 09:58:12;;;;;;;6;4.1;;;;;;;11.16;85.92676;991.074;;;;
2019/11/06 10:00:37;;;;;;;5.9;4.4;;;;;;;11.09;86.13965;991.0854;;;;
2019/11/06 10:03:01;;;;;;;5.5;4;;;;;;;11.09;86.23145;991.1418;;;;
2019/11/06 10:05:26;;;;;;;6.5;4.1;;;;;;;11.08;86.49316;991.141;;;;
2019/11/06 10:07:51;;;;;;;7.1;4.6;;;;;;;11;86.13477;991.1063;;;;
2019/11/06 10:10:16;;;;;;;6.1;4.4;;;;;;;11.07;86.0459;991.0706;;;;
2019/11/06 10:12:42;;;;;;;6.3;4.5;;;;;;;10.98;86.43945;991.072;;;;
2019/11/06 10:15:07;;;;;;;7.5;4.7;;;;;;;11.03;86.05078;991.0689;;;;
2019/11/06 10:17:32;;;;;;;6;4.4;;;;;;;11.02;86.15039;991.1266;;;;
2019/11/06 10:19:57;;;;;;;6.1;4.7;;;;;;;11.04;86.45215;991.0945;;;;
2019/11/06 10:22:22;;;;;;;4.8;4.1;;;;;;;11.13;85.69043;991.116;;;;
2019/11/06 10:24:47;;;;;;;7.8;4.5;;;;;;;11.12;86.01953;991.111;;;;
2019/11/06 10:27:12;;;;;;;7.2;4.9;;;;;;;11.06;86.375;991.0617;;;;
2019/11/06 10:29:37;;;;;;;13.9;8.2;;;;;;;11.21;85.60352;991.0858;;;;
2019/11/06 10:32:02;;;;;;;6.3;4.3;;;;;;;11.38;85.47656;991.0822;;;;
2019/11/06 10:34:28;;;;;;;6.9;4.2;;;;;;;11.51;84.57227;991.0499;;;;
2019/11/06 10:36:53;;;;;;;6;4.2;;;;;;;11.36;84.79395;991.1055;;;;
2019/11/06 10:39:18;;;;;;;9.7;4.5;;;;;;;11.16;85.18164;991.0768;;;;
2019/11/06 10:41:44;;;;;;;6.6;4.3;;;;;;;;;;;;;
2019/11/06 10:44:09;;;;;;;7.2;4.2;;;;;;;;;;;;;
2019/11/06 10:46:34;;;;;;;7.7;4.1;;;;;;;;;;;;;
2019/11/06 10:48:59;;;;;;;4.5;3.8;;;;;;;;;;;;;
2019/11/06 10:51:24;;;;;;;5.9;4;;;;;;;;;;;;;
2019/11/06 10:53:50;;;;;;;4.9;3.7;;;;;;;;;;;;;
2019/11/06 10:56:16;;;;;;;7.9;4.1;;;;;;;;;;;;;
2019/11/06 10:58:44;;;;;;;5.1;3.6;;;;;;;;;;;;;
2019/11/06 11:01:06;;;;;;;5.3;3.6;;;;;;;;;;;;;
2019/11/06 11:03:31;;;;;;;6.2;3.8;;;;;;;;;;;;;
2019/11/06 11:05:56;;;;;;;7.9;4;;;;;;;;;;;;;
2019/11/06 11:08:21;;;;;;;5.7;3.3;;;;;;;;;;;;;
2019/11/06 11:10:46;;;;;;;4.4;3;;;;;;;;;;;;;
2019/11/06 11:13:11;;;;;;;6.4;3.3;;;;;;;;;;;;;
2019/11/06 11:15:36;;;;;;;6.1;3.3;;;;;;;;;;;;;
2019/11/06 11:18:02;;;;;;;5.4;3.3;;;;;;;;;;;;;
2019/11/06 11:20:27;;;;;;;4.7;3.2;;;;;;;;;;;;;
2019/11/06 11:22:52;;;;;;;4.5;3;;;;;;;;;;;;;
2019/11/06 11:25:19;;;;;;;4.5;3;;;;;;;;;;;;;
2019/11/06 11:27:44;;;;;;;5.4;3.3;;;;;;;;;;;;;
2019/11/06 11:30:11;;;;;;;4.9;3.3;;;;;;;;;;;;;
2019/11/06 11:32:33;;;;;;;6.1;3.4;;;;;;;;;;;;;
2019/11/06 11:34:58;;;;;;;5.6;3.1;;;;;;;;;;;;;
2019/11/06 11:37:24;;;;;;;4.6;2.9;;;;;;;;;;;;;
2019/11/06 11:39:49;;;;;;;6.1;3.2;;;;;;;;;;;;;
2019/11/06 11:42:14;;;;;;;5.7;3.2;;;;;;;;;;;;;
2019/11/06 11:44:41;;;;;;;3.2;2.6;;;;;;;;;;;;;
2019/11/06 11:47:04;;;;;;;3.5;2.7;;;;;;;;;;;;;
2019/11/06 11:49:30;;;;;;;3.8;2.4;;;;;;;;;;;;;
2019/11/06 11:51:54;;;;;;;3.6;2.4;;;;;;;;;;;;;
2019/11/06 11:54:19;;;;;;;4.7;2.5;;;;;;;;;;;;;
2019/11/06 11:56:45;;;;;;;4.1;2.6;;;;;;;;;;;;;
2019/11/06 11:59:09;;;;;;;3.3;2.2;;;;;;;;;;;;;
2019/11/06 12:01:35;;;;;;;3.2;2.2;;;;;;;;;;;;;
2019/11/06 12:04:00;;;;;;;5.5;2.5;;;;;;;;;;;;;
2019/11/06 12:06:25;;;;;;;6.4;2.4;;;;;;;;;;;;;
2019/11/06 12:08:50;;;;;;;3.9;2.2;;;;;;;;;;;;;
2019/11/06 12:11:15;;;;;;;3.9;2.2;;;;;;;;;;;;;
2019/11/06 12:13:40;;;;;;;3.2;2.1;;;;;;;;;;;;;
2019/11/06 12:16:05;;;;;;;3.8;2.1;;;;;;;;;;;;;
2019/11/06 12:18:30;;;;;;;3.2;1.9;;;;;;;;;;;;;
2019/11/06 12:20:55;;;;;;;3;2;;;;;;;;;;;;;
2019/11/06 12:23:21;;;;;;;3.8;1.9;;;;;;;;;;;;;
2019/11/06 12:25:45;;;;;;;2.6;1.9;;;;;;;;;;;;;
2019/11/06 12:28:11;;;;;;;3.2;2;;;;;;;;;;;;;
2019/11/06 12:30:36;;;;;;;3;1.9;;;;;;;;;;;;;
2019/11/06 12:33:01;;;;;;;5.6;2.1;;;;;;;;;;;;;
2019/11/06 12:35:26;;;;;;;3;2;;;;;;;;;;;;;
2019/11/06 12:37:51;;;;;;;3.8;2.2;;;;;;;;;;;;;
2019/11/06 12:40:16;;;;;;;4;2.3;;;;;;;;;;;;;
2019/11/06 12:42:41;;;;;;;3.3;2.2;;;;;;;;;;;;;
2019/11/06 12:45:06;;;;;;;3.4;2.2;;;;;;;;;;;;;
2019/11/06 12:47:31;;;;;;;3.5;2.1;;;;;;;;;;;;;
2019/11/06 12:49:57;;;;;;;2.8;2.1;;;;;;;;;;;;;
2019/11/06 12:52:22;;;;;;;3.7;2;;;;;;;;;;;;;
2019/11/06 12:54:47;;;;;;;2.9;2;;;;;;;;;;;;;
2019/11/06 12:57:12;;;;;;;3.4;1.9;;;;;;;;;;;;;
2019/11/06 12:59:37;;;;;;;2.7;1.7;;;;;;;;;;;;;
2019/11/06 13:02:02;;;;;;;3.5;2.1;;;;;;;;;;;;;
2019/11/06 13:04:27;;;;;;;3;1.8;;;;;;;;;;;;;
2019/11/06 13:06:52;;;;;;;4;2.1;;;;;;;;;;;;;
2019/11/06 13:09:17;;;;;;;2.5;1.8;;;;;;;;;;;;;
2019/11/06 13:11:42;;;;;;;2.5;1.9;;;;;;;;;;;;;
2019/11/06 13:14:07;;;;;;;4.4;1.9;;;;;;;;;;;;;
2019/11/06 13:16:34;;;;;;;5.8;3.3;;;;;;;;;;;;;
2019/11/06 13:18:57;;;;;;;5.7;2.1;;;;;;;;;;;;;
2019/11/06 13:21:22;;;;;;;2.7;2;;;;;;;;;;;;;
2019/11/06 13:23:47;;;;;;;3.9;2.2;;;;;;;;;;;;;
2019/11/06 13:26:13;;;;;;;4.1;2.6;;;;;;;;;;;;;
2019/11/06 13:28:38;;;;;;;4.7;2.3;;;;;;;;;;;;;
2019/11/06 13:31:03;;;;;;;3.5;2.2;;;;;;;;;;;;;
2019/11/06 13:33:28;;;;;;;4.1;2.3;;;;;;;;;;;;;
2019/11/06 13:35:53;;;;;;;3.7;2.5;;;;;;;;;;;;;
2019/11/06 13:38:21;;;;;;;4.6;2.6;;;;;;;;;;;;;
2019/11/06 13:40:45;;;;;;;4.6;2.6;;;;;;;;;;;;;
2019/11/06 13:43:10;;;;;;;3.6;2.3;;;;;;;;;;;;;
2019/11/06 13:45:36;;;;;;;5;2.7;;;;;;;;;;;;;
2019/11/06 13:48:00;;;;;;;5.6;2.7;;;;;;;;;;;;;
2019/11/06 13:50:25;;;;;;;3.2;2.4;;;;;;;;;;;;;
2019/11/06 13:52:50;;;;;;;5;3;;;;;;;;;;;;;
2019/11/06 13:55:16;;;;;;;4.1;2.5;;;;;;;;;;;;;
2019/11/06 13:57:41;;;;;;;3.4;2.5;;;;;;;;;;;;;
2019/11/06 14:00:06;;;;;;;4.3;2.8;;;;;;;;;;;;;
2019/11/06 14:02:32;;;;;;;6.7;2.9;;;;;;;;;;;;;
2019/11/06 14:04:58;;;;;;;4.5;2.8;;;;;;;;;;;;;
2019/11/06 14:07:22;;;;;;;3.8;2.7;;;;;;;;;;;;;
2019/11/06 14:09:47;;;;;;;4.1;2.7;;;;;;;;;;;;;
2019/11/06 14:12:12;;;;;;;6;3;;;;;;;;;;;;;
2019/11/06 14:14:39;;;;;;;5.7;3;;;;;;;;;;;;;
2019/11/06 14:17:02;;;;;;;4.2;2.7;;;;;;;;;;;;;
2019/11/06 14:19:28;;;;;;;8;4.3;;;;;;;;;;;;;
2019/11/06 14:21:52;;;;;;;5.4;2.5;;;;;;;;;;;;;
2019/11/06 14:24:17;;;;;;;5.5;2.5;;;;;;;;;;;;;
2019/11/06 14:26:43;;;;;;;4;2.4;;;;;;;;;;;;;
2019/11/06 14:29:08;;;;;;;5.8;2.4;;;;;;;;;;;;;
2019/11/06 14:31:33;;;;;;;5.8;2.7;;;;;;;;;;;;;
2019/11/06 14:33:58;;;;;;;3.7;2.3;;;;;;;;;;;;;
2019/11/06 14:36:23;;;;;;;3.8;2.2;;;;;;;;;;;;;
2019/11/06 14:38:48;;;;;;;2.8;2;;;;;;;;;;;;;
2019/11/06 14:41:13;;;;;;;4.4;2.1;;;;;;;;;;;;;
2019/11/06 14:43:39;;;;;;;3;2.2;;;;;;;;;;;;;
2019/11/06 14:46:04;;;;;;;2.4;1.8;;;;;;;;;;;;;
2019/11/06 14:48:29;;;;;;;3.9;2.5;;;;;;;;;;;;;
2019/11/06 14:50:54;;;;;;;4;2.1;;;;;;;;;;;;;
2019/11/06 14:53:19;;;;;;;4.1;2.1;;;;;;;;;;;;;
2019/11/06 14:55:44;;;;;;;3.7;2.2;;;;;;;;;;;;;
2019/11/06 14:58:09;;;;;;;3.8;2.3;;;;;;;;;;;;;
2019/11/06 15:00:35;;;;;;;4;2.3;;;;;;;;;;;;;
2019/11/06 15:03:00;;;;;;;3.7;2;;;;;;;;;;;;;
2019/11/06 15:05:25;;;;;;;3.9;2.3;;;;;;;;;;;;;
2019/11/06 15:07:50;;;;;;;7.4;2.4;;;;;;;;;;;;;
2019/11/06 15:10:15;;;;;;;3.5;2.3;;;;;;;;;;;;;
2019/11/06 15:12:40;;;;;;;5.4;2.4;;;;;;;;;;;;;
2019/11/06 15:15:05;;;;;;;4.4;2.4;;;;;;;;;;;;;
2019/11/06 15:17:30;;;;;;;4.9;2.2;;;;;;;;;;;;;
2019/11/06 15:19:55;;;;;;;3.8;2.6;;;;;;;;;;;;;
2019/11/06 15:22:20;;;;;;;3.5;2.5;;;;;;;;;;;;;
2019/11/06 15:24:46;;;;;;;4.3;2.4;;;;;;;;;;;;;
2019/11/06 15:27:11;;;;;;;4.7;2.7;;;;;;;;;;;;;
2019/11/06 15:29:36;;;;;;;4.2;2.5;;;;;;;;;;;;;
2019/11/06 15:32:01;;;;;;;5.5;2.5;;;;;;;;;;;;;
2019/11/06 15:34:26;;;;;;;3.5;2.5;;;;;;;;;;;;;
2019/11/06 15:36:51;;;;;;;4.6;2.7;;;;;;;;;;;;;
2019/11/06 15:39:16;;;;;;;4;2.6;;;;;;;;;;;;;
2019/11/06 15:41:41;;;;;;;4.2;3;;;;;;;;;;;;;
2019/11/06 15:44:06;;;;;;;3.9;2.8;;;;;;;;;;;;;
2019/11/06 15:46:31;;;;;;;4.9;2.9;;;;;;;;;;;;;
2019/11/06 15:48:56;;;;;;;5;2.9;;;;;;;;;;;;;
2019/11/06 15:51:22;;;;;;;5;2.9;;;;;;;;;;;;;
2019/11/06 15:53:47;;;;;;;3.9;2.5;;;;;;;;;;;;;
2019/11/06 15:56:12;;;;;;;4.5;2.6;;;;;;;;;;;;;
2019/11/06 15:58:37;;;;;;;4.5;2.9;;;;;;;;;;;;;
2019/11/06 16:01:03;;;;;;;4.9;2.7;;;;;;;;;;;;;
2019/11/06 16:03:27;;;;;;;3.9;2.7;;;;;;;;;;;;;
2019/11/06 16:05:52;;;;;;;5.1;2.6;;;;;;;;;;;;;
2019/11/06 16:08:18;;;;;;;4.4;2.8;;;;;;;;;;;;;
2019/11/06 16:10:43;;;;;;;6.4;2.7;;;;;;;;;;;;;
2019/11/06 16:13:07;;;;;;;4.5;2.6;;;;;;;;;;;;;
2019/11/06 16:15:33;;;;;;;4.1;2.7;;;;;;;;;;;;;
2019/11/06 16:17:58;;;;;;;4.5;2.9;;;;;;;;;;;;;
2019/11/06 16:20:23;;;;;;;4.7;3;;;;;;;;;;;;;
2019/11/06 16:22:48;;;;;;;3.7;3;;;;;;;;;;;;;
2019/11/06 16:25:13;;;;;;;7;3.5;;;;;;;;;;;;;
2019/11/06 16:27:38;;;;;;;4.8;3.4;;;;;;;;;;;;;
2019/11/06 16:30:03;;;;;;;4.9;3.4;;;;;;;;;;;;;
2019/11/06 16:32:28;;;;;;;5.1;2.9;;;;;;;;;;;;;
2019/11/06 16:37:19;;;;;;;5.5;3.3;;;;;;;;;;;;;
2019/11/06 16:39:44;;;;;;;5.2;3.2;;;;;;;;;;;;;
2019/11/06 16:42:09;;;;;;;6.4;3.3;;;;;;;;;;;;;
2019/11/06 16:44:34;;;;;;;7.1;3.7;;;;;;;;;;;;;
2019/11/06 16:46:59;;;;;;;7.4;4.1;;;;;;;;;;;;;
2019/11/06 16:49:24;;;;;;;5.7;3.7;;;;;;;;;;;;;
2019/11/06 16:51:49;;;;;;;6;4;;;;;;;;;;;;;
2019/11/06 16:54:15;;;;;;;6.1;3.6;;;;;;;;;;;;;
2019/11/06 16:56:40;;;;;;;6.1;3.6;;;;;;;;;;;;;
2019/11/06 16:59:05;;;;;;;7;3.9;;;;;;;;;;;;;
2019/11/06 17:01:30;;;;;;;7.2;4;;;;;;;;;;;;;
2019/11/06 17:03:55;;;;;;;7.3;4.5;;;;;;;;;;;;;
2019/11/06 17:06:20;;;;;;;6.7;4.5;;;;;;;;;;;;;
2019/11/06 17:09:24;;;;;;;6.4;4.2;;;;;;;;;;;;;
2019/11/06 17:11:11;;;;;;;6.9;4.5;;;;;;;;;;;;;
2019/11/06 17:13:35;;;;;;;8.8;4.7;;;;;;;;;;;;;
2019/11/06 17:16:01;;;;;;;5.9;4.3;;;;;;;;;;;;;
2019/11/06 17:18:26;;;;;;;5.7;3.7;;;;;;;;;;;;;
2019/11/06 17:20:51;;;;;;;5.4;4.4;;;;;;;;;;;;;
2019/11/06 17:23:16;;;;;;;6.8;4.2;;;;;;;;;;;;;
2019/11/06 17:25:41;;;;;;;6.8;4.4;;;;;;;;;;;;;
2019/11/06 17:28:06;;;;;;;4.5;3.5;;;;;;;;;;;;;
2019/11/06 17:30:31;;;;;;;5.5;3.7;;;;;;;;;;;;;
2019/11/06 17:32:56;;;;;;;5.5;3.5;;;;;;;;;;;;;
2019/11/06 17:35:23;;;;;;;6.8;3.9;;;;;;;;;;;;;
2019/11/06 17:37:48;;;;;;;6.4;3.9;;;;;;;;;;;;;
2019/11/06 17:40:13;;;;;;;6.5;3.6;;;;;;;;;;;;;
2019/11/06 17:42:38;;;;;;;6.6;4;;;;;;;;;;;;;